Woodmoor, Colorado
Current Conditions -  °F | °C
As of 8:58 PM on Tuesday 21 Oct 2014 (Local Time) from KAFF Reporting Station
Few Clouds Few Clouds  
Wind Chill: 46°   Ceiling: Unl
Heat Index: 49°   Visibility: 10mi
Dew Point: 37°   Wind: 6mph
Humidity: 63%   Direction: 350°N
Pressure: 30.02"   Gusts: NA
Location:  39.0574°N, 104.903°W
Report Text: KAFF 220258Z AUTO 35005KT 10SM FEW160 09/03 A3002 RMK AO2 SLP124 T00930025 52005
Loading
Personal Weather Stations






























Interactive Weather Map
Tropical Storm Tracking
New forecast layout! Learn more

10-Day Weather Forecast

Advertisements
Track Severe Weather on mobile